sensor_id;sensor_type;location;lat;lon;timestamp;pressure;altitude;pressure_sealevel;temperature;humidity
19736;BME280;32064;49.310;8.646;2023-03-26T00:01:55;100056.56;;;12.39;72.24
19736;BME280;32064;49.310;8.646;2023-03-26T00:04:22;100056.44;;;12.40;71.96
19736;BME280;32064;49.310;8.646;2023-03-26T00:06:49;100050.47;;;12.38;70.28
19736;BME280;32064;49.310;8.646;2023-03-26T00:09:16;100038.63;;;12.32;71.61
19736;BME280;32064;49.310;8.646;2023-03-26T00:11:42;100045.56;;;12.33;70.53
19736;BME280;32064;49.310;8.646;2023-03-26T00:14:08;100041.50;;;12.29;72.38
19736;BME280;32064;49.310;8.646;2023-03-26T00:16:38;100039.97;;;12.27;71.01
19736;BME280;32064;49.310;8.646;2023-03-26T00:19:04;100049.78;;;12.25;71.59
19736;BME280;32064;49.310;8.646;2023-03-26T00:21:29;100048.25;;;12.22;70.74
19736;BME280;32064;49.310;8.646;2023-03-26T00:23:57;100044.66;;;12.23;71.94
19736;BME280;32064;49.310;8.646;2023-03-26T00:26:25;100049.22;;;12.21;71.39
19736;BME280;32064;49.310;8.646;2023-03-26T00:28:51;100039.66;;;12.20;70.97
19736;BME280;32064;49.310;8.646;2023-03-26T00:31:17;100051.13;;;12.19;71.97
19736;BME280;32064;49.310;8.646;2023-03-26T00:33:42;100048.75;;;12.16;71.69
19736;BME280;32064;49.310;8.646;2023-03-26T00:36:13;100045.53;;;12.12;71.98
19736;BME280;32064;49.310;8.646;2023-03-26T00:38:40;100044.97;;;12.09;71.78
19736;BME280;32064;49.310;8.646;2023-03-26T00:41:08;100034.53;;;12.07;71.45
19736;BME280;32064;49.310;8.646;2023-03-26T00:43:43;100036.59;;;12.04;71.81
19736;BME280;32064;49.310;8.646;2023-03-26T00:46:09;100030.59;;;12.02;72.03
19736;BME280;32064;49.310;8.646;2023-03-26T00:48:35;100031.22;;;11.94;72.28
19736;BME280;32064;49.310;8.646;2023-03-26T00:51:04;100024.19;;;11.83;71.84
19736;BME280;32064;49.310;8.646;2023-03-26T00:53:30;100009.19;;;11.84;71.90
19736;BME280;32064;49.310;8.646;2023-03-26T00:55:56;100010.13;;;11.83;72.82
19736;BME280;32064;49.310;8.646;2023-03-26T00:58:25;100002.22;;;11.83;73.00
19736;BME280;32064;49.310;8.646;2023-03-26T01:00:59;99997.47;;;11.77;73.11
19736;BME280;32064;49.310;8.646;2023-03-26T01:03:29;100004.66;;;11.75;73.92
19736;BME280;32064;49.310;8.646;2023-03-26T01:06:05;99990.19;;;11.69;72.80
19736;BME280;32064;49.310;8.646;2023-03-26T01:08:38;99994.63;;;11.68;72.20
19736;BME280;32064;49.310;8.646;2023-03-26T01:11:11;99978.47;;;11.62;73.11
19736;BME280;32064;49.310;8.646;2023-03-26T01:13:42;99973.72;;;11.56;73.27
19736;BME280;32064;49.310;8.646;2023-03-26T01:16:22;99976.34;;;11.56;72.34
19736;BME280;32064;49.310;8.646;2023-03-26T01:18:49;99971.09;;;11.56;74.21
19736;BME280;32064;49.310;8.646;2023-03-26T01:21:19;99973.72;;;11.56;72.67
19736;BME280;32064;49.310;8.646;2023-03-26T01:23:58;99970.63;;;11.51;72.60
19736;BME280;32064;49.310;8.646;2023-03-26T01:26:57;99972.19;;;11.42;75.15
19736;BME280;32064;49.310;8.646;2023-03-26T01:29:44;99964.88;;;11.45;74.71
19736;BME280;32064;49.310;8.646;2023-03-26T01:41:10;99953.50;;;11.45;72.76
19736;BME280;32064;49.310;8.646;2023-03-26T01:43:50;99941.56;;;11.41;73.63
19736;BME280;32064;49.310;8.646;2023-03-26T01:46:19;99949.09;;;11.34;73.91
19736;BME280;32064;49.310;8.646;2023-03-26T01:48:47;99947.69;;;11.30;73.42
19736;BME280;32064;49.310;8.646;2023-03-26T01:51:13;99940.63;;;11.31;74.02
19736;BME280;32064;49.310;8.646;2023-03-26T01:53:49;99936.91;;;11.33;75.34
19736;BME280;32064;49.310;8.646;2023-03-26T01:56:24;99925.66;;;11.31;73.93
19736;BME280;32064;49.310;8.646;2023-03-26T01:59:15;99926.72;;;11.29;75.49
19736;BME280;32064;49.310;8.646;2023-03-26T02:04:22;99913.81;;;11.26;74.84
19736;BME280;32064;49.310;8.646;2023-03-26T02:06:59;99914.66;;;11.26;74.16
19736;BME280;32064;49.310;8.646;2023-03-26T02:09:32;99904.25;;;11.24;74.77
19736;BME280;32064;49.310;8.646;2023-03-26T02:12:01;99899.72;;;11.27;73.60
19736;BME280;32064;49.310;8.646;2023-03-26T02:14:29;99886.06;;;11.21;74.42
19736;BME280;32064;49.310;8.646;2023-03-26T02:16:54;99886.06;;;11.21;75.40
19736;BME280;32064;49.310;8.646;2023-03-26T02:19:21;99879.00;;;11.22;74.37
19736;BME280;32064;49.310;8.646;2023-03-26T02:21:48;99878.19;;;11.21;75.54
19736;BME280;32064;49.310;8.646;2023-03-26T02:24:16;99880.19;;;11.18;73.76
19736;BME280;32064;49.310;8.646;2023-03-26T02:26:43;99868.75;;;11.08;75.75
19736;BME280;32064;49.310;8.646;2023-03-26T02:29:09;99864.22;;;11.10;74.30
19736;BME280;32064;49.310;8.646;2023-03-26T02:31:35;99865.88;;;11.11;73.97
19736;BME280;32064;49.310;8.646;2023-03-26T02:34:01;99866.97;;;11.08;75.40
19736;BME280;32064;49.310;8.646;2023-03-26T02:36:26;99851.06;;;11.10;74.26
19736;BME280;32064;49.310;8.646;2023-03-26T02:38:53;99857.00;;;11.12;74.85
19736;BME280;32064;49.310;8.646;2023-03-26T02:41:20;99855.09;;;11.14;75.58
19736;BME280;32064;49.310;8.646;2023-03-26T02:43:45;99844.56;;;11.14;74.30
19736;BME280;32064;49.310;8.646;2023-03-26T02:46:10;99841.59;;;11.07;75.10
19736;BME280;32064;49.310;8.646;2023-03-26T02:48:36;99847.22;;;11.02;74.78
19736;BME280;32064;49.310;8.646;2023-03-26T02:51:02;99844.97;;;10.98;75.13
19736;BME280;32064;49.310;8.646;2023-03-26T02:53:28;99830.03;;;10.98;75.23
19736;BME280;32064;49.310;8.646;2023-03-26T02:55:57;99824.78;;;10.98;75.99
19736;BME280;32064;49.310;8.646;2023-03-26T02:58:23;99819.25;;;11.01;76.02
19736;BME280;32064;49.310;8.646;2023-03-26T03:00:53;99815.53;;;11.04;75.24
19736;BME280;32064;49.310;8.646;2023-03-26T03:03:23;99819.94;;;11.04;74.20
19736;BME280;32064;49.310;8.646;2023-03-26T03:05:50;99807.50;;;11.06;75.58
19736;BME280;32064;49.310;8.646;2023-03-26T03:08:17;99807.38;;;11.07;74.67
19736;BME280;32064;49.310;8.646;2023-03-26T03:10:43;99808.59;;;11.03;74.77
19736;BME280;32064;49.310;8.646;2023-03-26T03:13:08;99797.59;;;10.98;74.52
19736;BME280;32064;49.310;8.646;2023-03-26T03:15:34;99792.31;;;10.98;75.98
19736;BME280;32064;49.310;8.646;2023-03-26T03:17:59;99792.31;;;10.98;75.34
19736;BME280;32064;49.310;8.646;2023-03-26T03:20:25;99799.97;;;11.01;76.07
19736;BME280;32064;49.310;8.646;2023-03-26T03:22:50;99796.41;;;11.02;75.29
19736;BME280;32064;49.310;8.646;2023-03-26T03:25:16;99789.69;;;10.98;76.75
19736;BME280;32064;49.310;8.646;2023-03-26T03:27:42;99789.59;;;10.99;75.15
19736;BME280;32064;49.310;8.646;2023-03-26T03:30:11;99779.88;;;11.00;74.87
19736;BME280;32064;49.310;8.646;2023-03-26T03:32:37;99779.63;;;11.03;76.30
19736;BME280;32064;49.310;8.646;2023-03-26T03:35:03;99777.56;;;11.07;76.00
19736;BME280;32064;49.310;8.646;2023-03-26T03:37:28;99775.81;;;11.07;75.85
19736;BME280;32064;49.310;8.646;2023-03-26T03:39:54;99775.09;;;11.05;74.63
19736;BME280;32064;49.310;8.646;2023-03-26T03:42:19;99774.81;;;11.08;76.41
19736;BME280;32064;49.310;8.646;2023-03-26T03:44:45;99766.47;;;11.03;75.39
19736;BME280;32064;49.310;8.646;2023-03-26T03:47:10;99761.22;;;11.03;76.62
19736;BME280;32064;49.310;8.646;2023-03-26T03:49:38;99753.72;;;10.98;76.16
19736;BME280;32064;49.310;8.646;2023-03-26T03:52:04;99748.88;;;11.04;76.00
19736;BME280;32064;49.310;8.646;2023-03-26T03:54:30;99747.78;;;11.06;76.65
19736;BME280;32064;49.310;8.646;2023-03-26T03:56:55;99745.41;;;11.03;74.71
19736;BME280;32064;49.310;8.646;2023-03-26T03:59:20;99740.66;;;10.97;76.92
19736;BME280;32064;49.310;8.646;2023-03-26T04:01:46;99737.06;;;10.98;75.03
19736;BME280;32064;49.310;8.646;2023-03-26T04:04:12;99729.88;;;11.00;76.46
19736;BME280;32064;49.310;8.646;2023-03-26T04:06:38;99726.88;;;11.05;76.22
19736;BME280;32064;49.310;8.646;2023-03-26T04:09:03;99726.72;;;11.06;76.61
19736;BME280;32064;49.310;8.646;2023-03-26T04:11:29;99717.63;;;11.10;74.71
19736;BME280;32064;49.310;8.646;2023-03-26T04:13:54;99722.56;;;11.04;76.24
19736;BME280;32064;49.310;8.646;2023-03-26T04:16:19;99708.72;;;11.01;75.98
19736;BME280;32064;49.310;8.646;2023-03-26T04:18:45;99705.22;;;11.01;75.42
19736;BME280;32064;49.310;8.646;2023-03-26T04:21:11;99695.09;;;10.96;75.66
19736;BME280;32064;49.310;8.646;2023-03-26T04:23:37;99694.94;;;10.98;75.60
19736;BME280;32064;49.310;8.646;2023-03-26T04:26:04;99679.75;;;11.01;77.19
19736;BME280;32064;49.310;8.646;2023-03-26T04:31:09;99668.00;;;11.06;77.44
19736;BME280;32064;49.310;8.646;2023-03-26T04:33:36;99667.16;;;11.05;77.12
19736;BME280;32064;49.310;8.646;2023-03-26T04:36:03;99660.09;;;11.06;77.37
19736;BME280;32064;49.310;8.646;2023-03-26T04:38:31;99646.94;;;11.06;76.36
19736;BME280;32064;49.310;8.646;2023-03-26T04:41:01;99649.94;;;11.01;77.11
19736;BME280;32064;49.310;8.646;2023-03-26T04:43:26;99644.81;;;10.99;76.86
19736;BME280;32064;49.310;8.646;2023-03-26T04:45:52;99640.28;;;11.01;76.84
19736;BME280;32064;49.310;8.646;2023-03-26T04:48:18;99630.25;;;10.95;77.71
19736;BME280;32064;49.310;8.646;2023-03-26T04:50:45;99628.88;;;11.01;75.99
19736;BME280;32064;49.310;8.646;2023-03-26T04:53:14;99636.94;;;10.99;76.96
19736;BME280;32064;49.310;8.646;2023-03-26T04:58:44;99637.50;;;11.03;75.53
19736;BME280;32064;49.310;8.646;2023-03-26T05:01:12;99629.28;;;10.96;75.81
19736;BME280;32064;49.310;8.646;2023-03-26T05:03:37;99625.13;;;10.94;76.46
19736;BME280;32064;49.310;8.646;2023-03-26T05:06:05;99626.53;;;10.98;76.82
19736;BME280;32064;49.310;8.646;2023-03-26T05:08:31;99613.34;;;10.98;77.17
19736;BME280;32064;49.310;8.646;2023-03-26T05:10:56;99611.81;;;10.95;75.77
19736;BME280;32064;49.310;8.646;2023-03-26T05:13:22;99608.97;;;10.98;76.19
19736;BME280;32064;49.310;8.646;2023-03-26T05:15:48;99598.16;;;11.01;76.67
19736;BME280;32064;49.310;8.646;2023-03-26T05:18:13;99596.03;;;10.95;76.67
19736;BME280;32064;49.310;8.646;2023-03-26T05:20:39;99602.00;;;10.97;76.89
19736;BME280;32064;49.310;8.646;2023-03-26T05:23:05;99596.88;;;10.96;76.88
19736;BME280;32064;49.310;8.646;2023-03-26T05:25:32;99596.22;;;11.04;75.91
19736;BME280;32064;49.310;8.646;2023-03-26T05:27:59;99588.91;;;11.07;76.28
19736;BME280;32064;49.310;8.646;2023-03-26T05:30:25;99585.69;;;11.04;77.14
19736;BME280;32064;49.310;8.646;2023-03-26T05:32:50;99581.13;;;11.06;76.09
19736;BME280;32064;49.310;8.646;2023-03-26T05:35:16;99580.84;;;10.99;76.75
19736;BME280;32064;49.310;8.646;2023-03-26T05:37:43;99567.94;;;10.96;76.55
19736;BME280;32064;49.310;8.646;2023-03-26T05:40:10;99570.38;;;10.88;76.64
19736;BME280;32064;49.310;8.646;2023-03-26T05:42:37;99555.03;;;10.93;77.09
19736;BME280;32064;49.310;8.646;2023-03-26T05:45:05;99558.81;;;11.00;75.78
19736;BME280;32064;49.310;8.646;2023-03-26T05:47:31;99559.78;;;10.99;75.54
19736;BME280;32064;49.310;8.646;2023-03-26T05:49:56;99546.22;;;11.04;77.43
19736;BME280;32064;49.310;8.646;2023-03-26T05:52:22;99543.56;;;11.04;75.68
19736;BME280;32064;49.310;8.646;2023-03-26T05:54:47;99531.28;;;11.04;75.81
19736;BME280;32064;49.310;8.646;2023-03-26T05:57:12;99536.22;;;10.97;75.76
19736;BME280;32064;49.310;8.646;2023-03-26T05:59:38;99526.13;;;11.02;77.47
19736;BME280;32064;49.310;8.646;2023-03-26T06:02:03;99514.78;;;11.02;75.49
19736;BME280;32064;49.310;8.646;2023-03-26T06:04:28;99516.56;;;11.01;76.47
19736;BME280;32064;49.310;8.646;2023-03-26T06:06:56;99492.03;;;11.01;77.08
19736;BME280;32064;49.310;8.646;2023-03-26T06:09:21;99488.56;;;11.00;77.76
19736;BME280;32064;49.310;8.646;2023-03-26T06:11:47;99491.34;;;10.99;75.77
19736;BME280;32064;49.310;8.646;2023-03-26T06:14:12;99483.84;;;10.94;76.91
19736;BME280;32064;49.310;8.646;2023-03-26T06:16:37;99482.91;;;11.05;75.30
19736;BME280;32064;49.310;8.646;2023-03-26T06:19:03;99474.75;;;11.08;75.80
19736;BME280;32064;49.310;8.646;2023-03-26T06:21:28;99468.25;;;11.12;77.17
19736;BME280;32064;49.310;8.646;2023-03-26T06:23:54;99461.16;;;11.03;75.99
19736;BME280;32064;49.310;8.646;2023-03-26T06:26:20;99453.31;;;11.13;76.88
19736;BME280;32064;49.310;8.646;2023-03-26T06:28:45;99448.88;;;11.23;77.29
19736;BME280;32064;49.310;8.646;2023-03-26T06:31:11;99442.78;;;11.22;75.95
19736;BME280;32064;49.310;8.646;2023-03-26T06:33:37;99437.66;;;11.21;75.24
19736;BME280;32064;49.310;8.646;2023-03-26T06:36:02;99449.59;;;11.25;76.73
19736;BME280;32064;49.310;8.646;2023-03-26T06:38:28;99441.69;;;11.25;75.80
19736;BME280;32064;49.310;8.646;2023-03-26T06:40:53;99439.88;;;11.26;75.13
19736;BME280;32064;49.310;8.646;2023-03-26T06:43:19;99432.53;;;11.29;75.94
19736;BME280;32064;49.310;8.646;2023-03-26T06:45:44;99426.59;;;11.37;76.15
19736;BME280;32064;49.310;8.646;2023-03-26T06:48:13;99428.25;;;11.38;77.14
19736;BME280;32064;49.310;8.646;2023-03-26T06:50:39;99428.00;;;11.41;76.79
19736;BME280;32064;49.310;8.646;2023-03-26T06:53:04;99422.72;;;11.41;75.08
19736;BME280;32064;49.310;8.646;2023-03-26T06:55:30;99421.47;;;11.35;77.01
19736;BME280;32064;49.310;8.646;2023-03-26T06:57:55;99417.72;;;11.38;75.72
19736;BME280;32064;49.310;8.646;2023-03-26T07:00:22;99421.59;;;11.43;76.65
19736;BME280;32064;49.310;8.646;2023-03-26T07:02:48;99419.53;;;11.47;76.56
19736;BME280;32064;49.310;8.646;2023-03-26T07:05:13;99419.53;;;11.37;75.58
19736;BME280;32064;49.310;8.646;2023-03-26T07:07:39;99412.59;;;11.46;76.67
19736;BME280;32064;49.310;8.646;2023-03-26T07:10:06;99422.97;;;11.38;75.85
19736;BME280;32064;49.310;8.646;2023-03-26T07:12:32;99419.94;;;11.42;74.43
19736;BME280;32064;49.310;8.646;2023-03-26T07:14:58;99414.25;;;11.37;75.96
19736;BME280;32064;49.310;8.646;2023-03-26T07:17:25;99407.88;;;11.40;75.23
19736;BME280;32064;49.310;8.646;2023-03-26T07:19:50;99410.13;;;11.44;75.85
19736;BME280;32064;49.310;8.646;2023-03-26T07:22:22;99412.59;;;11.46;76.09
19736;BME280;32064;49.310;8.646;2023-03-26T07:24:48;99406.06;;;11.40;75.50
19736;BME280;32064;49.310;8.646;2023-03-26T07:27:36;99407.88;;;11.30;76.22
19736;BME280;32064;49.310;8.646;2023-03-26T07:35:16;99391.38;;;11.28;76.70
19736;BME280;32064;49.310;8.646;2023-03-26T07:37:59;99382.22;;;11.32;75.65
19736;BME280;32064;49.310;8.646;2023-03-26T07:40:57;99380.84;;;11.38;75.48
19736;BME280;32064;49.310;8.646;2023-03-26T07:46:32;99383.91;;;11.33;76.66
19736;BME280;32064;49.310;8.646;2023-03-26T07:49:02;99389.72;;;11.37;75.63
19736;BME280;32064;49.310;8.646;2023-03-26T07:51:29;99382.81;;;11.36;76.75
19736;BME280;32064;49.310;8.646;2023-03-26T07:53:55;99375.72;;;11.36;77.54
19736;BME280;32064;49.310;8.646;2023-03-26T07:56:42;99382.66;;;11.37;78.43
19736;BME280;32064;49.310;8.646;2023-03-26T07:59:39;99373.09;;;11.36;78.29
19736;BME280;32064;49.310;8.646;2023-03-26T08:07:55;99376.44;;;11.38;78.48
19736;BME280;32064;49.310;8.646;2023-03-26T08:10:39;99378.50;;;11.44;77.98
19736;BME280;32064;49.310;8.646;2023-03-26T08:13:12;99385.44;;;11.45;78.79
19736;BME280;32064;49.310;8.646;2023-03-26T08:15:59;99383.91;;;11.43;78.27
19736;BME280;32064;49.310;8.646;2023-03-26T08:18:44;99381.84;;;11.46;78.85
19736;BME280;32064;49.310;8.646;2023-03-26T08:21:18;99375.06;;;11.44;79.32
19736;BME280;32064;49.310;8.646;2023-03-26T08:27:12;99370.88;;;11.51;79.29
19736;BME280;32064;49.310;8.646;2023-03-26T08:29:52;99376.41;;;11.67;77.42
19736;BME280;32064;49.310;8.646;2023-03-26T08:32:22;99372.94;;;11.77;77.96
19736;BME280;32064;49.310;8.646;2023-03-26T08:34:48;99371.16;;;11.87;79.32
19736;BME280;32064;49.310;8.646;2023-03-26T08:37:13;99369.72;;;12.02;78.82
19736;BME280;32064;49.310;8.646;2023-03-26T08:39:39;99370.09;;;12.17;77.23
19736;BME280;32064;49.310;8.646;2023-03-26T08:45:16;99352.59;;;12.26;79.12
19736;BME280;32064;49.310;8.646;2023-03-26T08:48:09;99351.75;;;12.25;77.50
19736;BME280;32064;49.310;8.646;2023-03-26T08:51:04;99343.59;;;12.19;77.87
19736;BME280;32064;49.310;8.646;2023-03-26T08:56:18;99343.19;;;12.23;78.61
19736;BME280;32064;49.310;8.646;2023-03-26T09:04:53;99337.91;;;12.23;78.17
19736;BME280;32064;49.310;8.646;2023-03-26T09:07:46;99337.44;;;12.28;78.44
19736;BME280;32064;49.310;8.646;2023-03-26T09:10:22;99335.09;;;12.34;78.11
19736;BME280;32064;49.310;8.646;2023-03-26T09:27:10;99353.91;;;12.40;79.22
19736;BME280;32064;49.310;8.646;2023-03-26T09:32:55;99338.50;;;12.72;79.69
19736;BME280;32064;49.310;8.646;2023-03-26T09:38:20;99311.06;;;12.83;79.64
19736;BME280;32064;49.310;8.646;2023-03-26T09:40:57;99309.84;;;12.95;78.72
19736;BME280;32064;49.310;8.646;2023-03-26T09:43:41;99306.31;;;13.04;77.29
19736;BME280;32064;49.310;8.646;2023-03-26T09:51:54;99305.25;;;13.15;77.37
19736;BME280;32064;49.310;8.646;2023-03-26T10:03:06;99306.34;;;13.40;76.92
19736;BME280;32064;49.310;8.646;2023-03-26T10:10:52;99296.59;;;16.96;71.05
19736;BME280;32064;49.310;8.646;2023-03-26T10:16:32;99290.88;;;21.50;60.12
19736;BME280;32064;49.310;8.646;2023-03-26T10:30:58;99273.53;;;20.03;58.66
19736;BME280;32064;49.310;8.646;2023-03-26T10:33:44;99290.88;;;20.55;58.00
19736;BME280;32064;49.310;8.646;2023-03-26T10:36:37;99274.38;;;21.86;54.97
19736;BME280;32064;49.310;8.646;2023-03-26T10:42:10;99273.69;;;20.30;58.54
19736;BME280;32064;49.310;8.646;2023-03-26T10:45:20;99266.09;;;20.33;59.20
19736;BME280;32064;49.310;8.646;2023-03-26T10:53:35;99245.50;;;18.50;60.73
19736;BME280;32064;49.310;8.646;2023-03-26T10:56:14;99244.47;;;18.00;63.27
19736;BME280;32064;49.310;8.646;2023-03-26T10:58:40;99247.72;;;17.58;63.17
19736;BME280;32064;49.310;8.646;2023-03-26T11:04:44;99261.41;;;16.63;65.77
19736;BME280;32064;49.310;8.646;2023-03-26T11:07:38;99267.41;;;18.46;63.57
19736;BME280;32064;49.310;8.646;2023-03-26T11:10:35;99257.94;;;20.07;63.05
19736;BME280;32064;49.310;8.646;2023-03-26T11:18:32;99255.50;;;24.03;54.48
19736;BME280;32064;49.310;8.646;2023-03-26T11:21:07;99255.41;;;23.23;55.67
19736;BME280;32064;49.310;8.646;2023-03-26T11:23:42;99250.13;;;22.33;56.50
19736;BME280;32064;49.310;8.646;2023-03-26T11:26:15;99238.78;;;21.39;57.48
19736;BME280;32064;49.310;8.646;2023-03-26T11:28:53;99242.38;;;20.65;56.69
19736;BME280;32064;49.310;8.646;2023-03-26T11:31:32;99234.41;;;19.82;57.45
19736;BME280;32064;49.310;8.646;2023-03-26T11:34:03;99241.16;;;19.00;58.09
19736;BME280;32064;49.310;8.646;2023-03-26T11:36:33;99252.22;;;18.46;59.36
19736;BME280;32064;49.310;8.646;2023-03-26T11:39:03;99244.75;;;18.05;59.12
19736;BME280;32064;49.310;8.646;2023-03-26T11:41:30;99250.53;;;17.79;60.57
19736;BME280;32064;49.310;8.646;2023-03-26T11:44:03;99242.13;;;17.53;58.84
19736;BME280;32064;49.310;8.646;2023-03-26T11:46:31;99245.34;;;17.48;60.94
19736;BME280;32064;49.310;8.646;2023-03-26T11:48:59;99247.41;;;17.38;60.35
19736;BME280;32064;49.310;8.646;2023-03-26T11:51:40;99233.56;;;17.27;60.37
19736;BME280;32064;49.310;8.646;2023-03-26T11:54:10;99236.72;;;17.08;58.56
19736;BME280;32064;49.310;8.646;2023-03-26T11:59:29;99230.84;;;16.90;57.69
19736;BME280;32064;49.310;8.646;2023-03-26T12:02:13;99239.31;;;17.16;57.88
19736;BME280;32064;49.310;8.646;2023-03-26T12:04:42;99236.38;;;17.64;56.53
19736;BME280;32064;49.310;8.646;2023-03-26T12:07:16;99226.69;;;18.01;55.81
19736;BME280;32064;49.310;8.646;2023-03-26T12:09:56;99225.72;;;18.59;54.13
19736;BME280;32064;49.310;8.646;2023-03-26T12:12:29;99233.44;;;19.12;52.29
19736;BME280;32064;49.310;8.646;2023-03-26T12:14:56;99221.91;;;19.33;51.56
19736;BME280;32064;49.310;8.646;2023-03-26T12:17:31;99216.91;;;18.95;50.20
19736;BME280;32064;49.310;8.646;2023-03-26T12:19:58;99233.78;;;19.02;50.58
19736;BME280;32064;49.310;8.646;2023-03-26T12:27:58;99225.84;;;18.00;50.33
19736;BME280;32064;49.310;8.646;2023-03-26T12:30:32;99230.72;;;17.82;51.08
19736;BME280;32064;49.310;8.646;2023-03-26T12:33:00;99223.19;;;17.85;51.66
19736;BME280;32064;49.310;8.646;2023-03-26T12:35:29;99222.44;;;17.91;49.32
19736;BME280;32064;49.310;8.646;2023-03-26T12:41:17;99220.28;;;18.68;47.22
19736;BME280;32064;49.310;8.646;2023-03-26T12:43:49;99210.19;;;18.78;47.17
19736;BME280;32064;49.310;8.646;2023-03-26T12:48:53;99197.06;;;19.26;46.08
19736;BME280;32064;49.310;8.646;2023-03-26T12:51:29;99203.50;;;19.66;45.69
19736;BME280;32064;49.310;8.646;2023-03-26T12:54:26;99195.88;;;19.63;44.02
19736;BME280;32064;49.310;8.646;2023-03-26T13:07:42;99186.53;;;19.81;43.30
19736;BME280;32064;49.310;8.646;2023-03-26T13:13:10;99195.75;;;19.71;42.40
19736;BME280;32064;49.310;8.646;2023-03-26T13:15:49;99175.22;;;19.79;41.83
19736;BME280;32064;49.310;8.646;2023-03-26T13:18:26;99169.22;;;19.70;43.23
19736;BME280;32064;49.310;8.646;2023-03-26T13:21:13;99170.38;;;19.61;41.70
19736;BME280;32064;49.310;8.646;2023-03-26T13:29:07;99164.81;;;19.56;43.04
19736;BME280;32064;49.310;8.646;2023-03-26T13:32:05;99168.13;;;19.58;42.75
19736;BME280;32064;49.310;8.646;2023-03-26T13:38:01;99159.72;;;19.26;44.17
19736;BME280;32064;49.310;8.646;2023-03-26T13:43:23;99154.25;;;19.06;44.84
19736;BME280;32064;49.310;8.646;2023-03-26T13:48:57;99146.44;;;18.61;45.07
19736;BME280;32064;49.310;8.646;2023-03-26T13:54:22;99138.53;;;18.47;45.05
19736;BME280;32064;49.310;8.646;2023-03-26T13:57:08;99146.94;;;18.29;44.39
19736;BME280;32064;49.310;8.646;2023-03-26T13:59:55;99137.13;;;18.14;45.00
19736;BME280;32064;49.310;8.646;2023-03-26T14:02:24;99142.97;;;18.03;47.05
19736;BME280;32064;49.310;8.646;2023-03-26T14:04:59;99130.78;;;17.94;46.87
19736;BME280;32064;49.310;8.646;2023-03-26T14:07:31;99140.25;;;17.82;47.21
19736;BME280;32064;49.310;8.646;2023-03-26T14:10:32;99141.69;;;17.55;44.94
19736;BME280;32064;49.310;8.646;2023-03-26T14:13:17;99140.16;;;17.31;46.33
19736;BME280;32064;49.310;8.646;2023-03-26T14:15:49;99141.88;;;17.23;46.41
19736;BME280;32064;49.310;8.646;2023-03-26T14:18:36;99154.13;;;17.10;45.83
19736;BME280;32064;49.310;8.646;2023-03-26T14:27:32;99156.19;;;16.85;47.87
19736;BME280;32064;49.310;8.646;2023-03-26T14:38:59;99202.00;;;15.93;51.29
19736;BME280;32064;49.310;8.646;2023-03-26T14:41:46;99217.50;;;15.73;52.70
19736;BME280;32064;49.310;8.646;2023-03-26T14:52:08;99221.19;;;15.31;53.53
19736;BME280;32064;49.310;8.646;2023-03-26T14:54:40;99217.06;;;15.12;54.43
19736;BME280;32064;49.310;8.646;2023-03-26T15:00:23;99214.56;;;14.94;55.51
19736;BME280;32064;49.310;8.646;2023-03-26T15:12:05;99221.84;;;14.59;59.25
19736;BME280;32064;49.310;8.646;2023-03-26T15:37:02;99215.47;;;14.36;59.69
19736;BME280;32064;49.310;8.646;2023-03-26T15:43:10;99216.94;;;14.30;59.66
19736;BME280;32064;49.310;8.646;2023-03-26T15:45:39;99218.56;;;14.23;59.63
19736;BME280;32064;49.310;8.646;2023-03-26T15:48:19;99227.59;;;14.12;60.36
19736;BME280;32064;49.310;8.646;2023-03-26T15:51:01;99220.63;;;14.03;60.46
19736;BME280;32064;49.310;8.646;2023-03-26T15:53:41;99222.22;;;13.88;61.16
19736;BME280;32064;49.310;8.646;2023-03-26T15:59:04;99239.66;;;13.73;62.03
19736;BME280;32064;49.310;8.646;2023-03-26T16:01:48;99234.84;;;13.68;62.66
19736;BME280;32064;49.310;8.646;2023-03-26T16:04:49;99244.50;;;13.51;62.27
19736;BME280;32064;49.310;8.646;2023-03-26T16:10:01;99242.09;;;13.66;61.69
19736;BME280;32064;49.310;8.646;2023-03-26T16:12:55;99249.34;;;13.64;62.88
19736;BME280;32064;49.310;8.646;2023-03-26T16:15:40;99251.59;;;13.51;63.35
19736;BME280;32064;49.310;8.646;2023-03-26T16:20:53;99251.47;;;13.34;63.26
19736;BME280;32064;49.310;8.646;2023-03-26T16:23:33;99250.34;;;13.37;62.64
19736;BME280;32064;49.310;8.646;2023-03-26T16:36:22;99302.00;;;13.21;63.79
19736;BME280;32064;49.310;8.646;2023-03-26T16:44:26;99293.88;;;13.15;65.10
19736;BME280;32064;49.310;8.646;2023-03-26T16:47:18;99303.63;;;13.14;63.65
19736;BME280;32064;49.310;8.646;2023-03-26T16:50:16;99295.84;;;12.95;66.05
19736;BME280;32064;49.310;8.646;2023-03-26T16:52:57;99303.91;;;12.93;64.97
19736;BME280;32064;49.310;8.646;2023-03-26T16:55:45;99296.34;;;12.80;64.31
19736;BME280;32064;49.310;8.646;2023-03-26T17:01:06;99303.38;;;12.90;64.04
19736;BME280;32064;49.310;8.646;2023-03-26T17:11:59;99309.03;;;12.77;66.33
19736;BME280;32064;49.310;8.646;2023-03-26T17:18:40;99307.66;;;12.73;65.74
19736;BME280;32064;49.310;8.646;2023-03-26T17:20:38;99308.63;;;12.72;66.28
19736;BME280;32064;49.310;8.646;2023-03-26T17:32:12;99312.31;;;12.61;65.63
19736;BME280;32064;49.310;8.646;2023-03-26T17:42:31;99298.78;;;12.46;67.17
19736;BME280;32064;49.310;8.646;2023-03-26T17:44:58;99298.91;;;12.45;67.43
19736;BME280;32064;49.310;8.646;2023-03-26T17:47:30;99292.53;;;12.47;68.11
19736;BME280;32064;49.310;8.646;2023-03-26T17:50:03;99293.91;;;12.51;68.21
19736;BME280;32064;49.310;8.646;2023-03-26T17:55:15;99286.72;;;12.44;68.61
19736;BME280;32064;49.310;8.646;2023-03-26T17:57:43;99293.94;;;12.42;67.03
19736;BME280;32064;49.310;8.646;2023-03-26T18:00:15;99287.53;;;12.44;67.63
19736;BME280;32064;49.310;8.646;2023-03-26T18:03:05;99293.06;;;12.51;66.86
19736;BME280;32064;49.310;8.646;2023-03-26T18:05:32;99296.09;;;12.56;67.73
19736;BME280;32064;49.310;8.646;2023-03-26T18:14:00;99286.13;;;12.50;68.92